Time;durP1;ratioP1;P1;durP2;ratioP2;P2;SDS_P1;SDS_P2;PMS_P1;PMS_P2;Temp;Humidity;BMP_temperature;BMP_pressure;BME280_temperature;BME280_humidity;BME280_pressure;Samples;Min_cycle;Max_cycle;Signal;HPM_P1;HPM_P2
2023/02/24 00:02:26;;;;;;;19.60;13.00;;;;;;;7.40;75.66;96023.05;108761;1273;25282;-80
2023/02/24 00:04:59;;;;;;;16.60;11.40;;;;;;;7.40;75.57;96025.48;108722;1266;22521;-79
2023/02/24 00:07:30;;;;;;;16.30;11.60;;;;;;;7.40;75.58;96014.14;108700;1273;23273;-79
2023/02/24 00:10:03;;;;;;;16.40;11.10;;;;;;;7.39;75.53;96010.50;108747;1269;22532;-79
2023/02/24 00:12:34;;;;;;;19.80;11.70;;;;;;;7.37;75.59;96005.77;108726;1268;26576;-80
2023/02/24 00:15:06;;;;;;;16.50;10.10;;;;;;;7.34;75.67;96007.90;108735;1269;22564;-79
2023/02/24 00:17:38;;;;;;;18.70;13.40;;;;;;;7.33;75.65;96005.01;108740;1273;22565;-80
2023/02/24 00:20:12;;;;;;;22.20;14.60;;;;;;;7.31;75.84;96000.41;108744;1266;22573;-79
2023/02/24 00:22:43;;;;;;;19.20;11.70;;;;;;;7.31;75.80;96000.16;108805;1273;22557;-79
2023/02/24 00:25:15;;;;;;;15.60;9.50;;;;;;;7.33;75.81;96002.95;108757;1273;25468;-79
2023/02/24 00:27:46;;;;;;;17.80;11.50;;;;;;;7.33;75.76;95997.20;108735;1273;22520;-79
2023/02/24 00:30:20;;;;;;;19.70;11.70;;;;;;;7.32;75.74;95989.19;108760;1271;22622;-80
2023/02/24 00:32:51;;;;;;;18.30;11.70;;;;;;;7.33;75.71;95982.12;108741;1270;22994;-79
2023/02/24 00:35:22;;;;;;;21.00;12.10;;;;;;;7.36;75.56;95983.90;108762;1273;22703;-80
2023/02/24 00:37:53;;;;;;;18.80;9.80;;;;;;;7.42;75.33;95982.80;108765;1273;22630;-80
2023/02/24 00:40:25;;;;;;;17.90;11.50;;;;;;;7.40;75.46;95986.77;108745;1270;22745;-80
2023/02/24 00:42:56;;;;;;;15.40;9.50;;;;;;;7.36;75.51;95980.20;108705;1273;22555;-79
2023/02/24 00:45:29;;;;;;;17.80;10.80;;;;;;;7.33;75.80;95984.49;108787;1273;22535;-79
2023/02/24 00:48:03;;;;;;;26.80;12.10;;;;;;;7.29;75.83;95980.80;108731;1273;23877;-80
2023/02/24 00:50:34;;;;;;;20.20;13.70;;;;;;;7.35;75.75;95981.64;108738;1273;22679;-79
2023/02/24 00:53:05;;;;;;;19.30;12.00;;;;;;;7.35;75.82;95980.05;108704;1273;24340;-80
2023/02/24 00:55:36;;;;;;;19.20;11.20;;;;;;;7.28;76.06;95980.61;108796;1273;25184;-79
2023/02/24 00:58:07;;;;;;;19.80;13.00;;;;;;;7.25;76.13;95979.10;108715;1273;25427;-80
2023/02/24 01:00:38;;;;;;;25.00;12.30;;;;;;;7.27;76.20;95978.30;108732;1274;22520;-80
2023/02/24 01:03:09;;;;;;;18.10;11.20;;;;;;;7.32;76.23;95978.06;108746;1268;22549;-80
2023/02/24 01:05:40;;;;;;;22.50;12.30;;;;;;;7.34;75.99;95978.16;108762;1273;23784;-80
2023/02/24 01:08:15;;;;;;;20.00;11.20;;;;;;;7.35;75.90;95961.48;108720;1273;22532;-80
2023/02/24 01:12:00;;;;;;;21.50;13.70;;;;;;;7.39;75.75;95968.73;108772;1270;22563;-79
2023/02/24 01:13:37;;;;;;;21.80;13.00;;;;;;;7.36;75.65;95958.64;108707;1268;22643;-81
2023/02/24 01:16:08;;;;;;;18.00;11.20;;;;;;;7.37;75.79;95951.25;108725;1273;22528;-79
2023/02/24 01:18:39;;;;;;;16.30;11.00;;;;;;;7.36;75.91;95953.99;108764;1273;25419;-80
2023/02/24 01:21:11;;;;;;;16.90;11.00;;;;;;;7.39;75.79;95950.90;108749;1269;22556;-79
2023/02/24 01:23:42;;;;;;;17.20;11.10;;;;;;;7.38;75.83;95936.98;108802;1268;23500;-80
2023/02/24 01:26:14;;;;;;;22.70;11.00;;;;;;;7.39;75.90;95932.77;108745;1268;22556;-80
2023/02/24 01:28:46;;;;;;;15.90;9.20;;;;;;;7.39;76.02;95933.30;108774;1268;27130;-79
2023/02/24 01:31:19;;;;;;;16.30;9.10;;;;;;;7.38;76.05;95929.09;108692;1273;22604;-79
2023/02/24 01:33:51;;;;;;;19.90;11.80;;;;;;;7.41;76.19;95917.41;108775;1270;23414;-81
2023/02/24 01:36:24;;;;;;;18.50;12.90;;;;;;;7.46;76.15;95915.80;108727;1273;22573;-80
2023/02/24 01:38:55;;;;;;;18.20;10.70;;;;;;;7.48;76.12;95913.99;108713;1267;25236;-79
2023/02/24 01:41:29;;;;;;;19.30;11.20;;;;;;;7.51;75.83;95907.59;108745;1273;22534;-79
2023/02/24 01:44:04;;;;;;;20.20;12.00;;;;;;;7.53;75.64;95911.47;108715;1274;22531;-80
2023/02/24 01:46:37;;;;;;;18.90;11.90;;;;;;;7.51;75.77;95921.09;108761;1269;22807;-79
2023/02/24 01:49:12;;;;;;;19.90;10.90;;;;;;;7.47;75.81;95919.39;108746;1273;26431;-80
2023/02/24 01:51:48;;;;;;;15.00;9.00;;;;;;;7.45;76.12;95923.34;108724;1273;29336;-79
2023/02/24 01:54:22;;;;;;;19.40;9.70;;;;;;;7.40;76.10;95916.04;108754;1274;22535;-80
2023/02/24 01:56:56;;;;;;;18.20;12.00;;;;;;;7.39;76.07;95913.20;108748;1270;24372;-79
2023/02/24 01:59:30;;;;;;;17.40;11.10;;;;;;;7.37;76.11;95916.86;108722;1267;22652;-80
2023/02/24 02:02:05;;;;;;;15.40;9.90;;;;;;;7.33;76.18;95915.68;108697;1273;25915;-80
2023/02/24 02:04:41;;;;;;;18.20;9.70;;;;;;;7.30;76.27;95916.84;108749;1273;24218;-80
2023/02/24 02:07:16;;;;;;;14.90;9.00;;;;;;;7.29;76.46;95909.63;108728;1268;23916;-79
2023/02/24 02:09:49;;;;;;;15.90;9.40;;;;;;;7.27;76.58;95917.02;108818;1273;22521;-79
2023/02/24 02:12:21;;;;;;;15.80;11.10;;;;;;;7.21;76.89;95913.44;108715;1273;22514;-79
2023/02/24 02:14:58;;;;;;;16.40;11.40;;;;;;;7.20;76.94;95915.77;108712;1273;23846;-80
2023/02/24 02:17:37;;;;;;;17.00;8.70;;;;;;;7.23;76.81;95906.84;108777;1273;25758;-80
2023/02/24 02:20:36;;;;;;;18.20;10.30;;;;;;;7.26;76.76;95885.20;108728;1273;22622;-79
2023/02/24 02:23:37;;;;;;;18.10;9.80;;;;;;;7.28;76.59;95894.23;108721;1273;23804;-80
2023/02/24 02:26:27;;;;;;;21.50;10.30;;;;;;;7.27;76.74;95899.42;108756;1274;22602;-80
2023/02/24 02:29:21;;;;;;;17.60;10.60;;;;;;;7.20;76.87;95898.10;108790;1271;25339;-79
2023/02/24 02:32:17;;;;;;;19.00;13.10;;;;;;;7.15;76.98;95892.21;108673;1269;22632;-80
2023/02/24 02:34:55;;;;;;;16.10;9.20;;;;;;;7.10;77.22;95892.83;108759;1273;23220;-79
2023/02/24 02:37:33;;;;;;;17.70;10.90;;;;;;;7.08;77.57;95895.91;108737;1273;24211;-80
2023/02/24 02:40:18;;;;;;;17.00;11.00;;;;;;;7.04;77.58;95896.13;108771;1274;26551;-80
2023/02/24 02:42:56;;;;;;;18.80;11.50;;;;;;;7.00;77.83;95902.42;108755;1274;22668;-80
2023/02/24 02:45:36;;;;;;;14.30;8.40;;;;;;;6.98;77.83;95891.79;108777;1273;22520;-80
2023/02/24 02:48:07;;;;;;;;;;;;;;;6.98;77.96;95894.27;108782;1273;25654;-79
2023/02/24 02:50:45;;;;;;;16.70;10.90;;;;;;;6.95;78.18;95890.03;108753;1273;25432;-79
2023/02/24 02:53:24;;;;;;;17.90;11.60;;;;;;;6.90;78.49;95895.21;108686;1273;22539;-79
2023/02/24 02:56:03;;;;;;;18.30;10.90;;;;;;;6.88;78.65;95893.05;108717;1274;22543;-79
2023/02/24 02:58:39;;;;;;;19.20;11.40;;;;;;;6.83;78.89;95890.82;108738;1274;22524;-80
2023/02/24 03:01:15;;;;;;;14.70;9.20;;;;;;;6.82;79.14;95885.93;108739;1270;23537;-80
2023/02/24 03:03:51;;;;;;;15.60;8.50;;;;;;;6.79;79.29;95881.69;108721;1273;22735;-79
2023/02/24 03:06:28;;;;;;;15.20;10.60;;;;;;;6.77;79.52;95884.86;108618;1273;127828;-79
2023/02/24 03:09:11;;;;;;;16.80;9.50;;;;;;;6.78;79.56;95878.95;108789;1273;22526;-79
2023/02/24 03:11:43;;;;;;;12.70;8.10;;;;;;;6.79;79.68;95864.98;108663;1272;36131;-79
2023/02/24 03:14:18;;;;;;;12.60;7.40;;;;;;;6.83;79.71;95870.74;108778;1274;22589;-80
2023/02/24 03:16:53;;;;;;;11.90;5.70;;;;;;;6.86;79.75;95864.71;108697;1274;22566;-80
2023/02/24 03:19:29;;;;;;;11.20;6.30;;;;;;;6.91;79.78;95858.80;108712;1274;22531;-80
2023/02/24 03:22:06;;;;;;;14.40;8.40;;;;;;;6.95;79.83;95864.20;108764;1274;22594;-79
2023/02/24 03:24:39;;;;;;;13.10;7.30;;;;;;;6.89;80.31;95861.55;108742;1273;22589;-80
2023/02/24 03:27:19;;;;;;;14.50;7.20;;;;;;;6.80;80.73;95863.86;108831;1270;22516;-80
2023/02/24 03:29:57;;;;;;;10.50;7.00;;;;;;;6.73;81.34;95865.89;108752;1273;22524;-80
2023/02/24 03:32:31;;;;;;;13.60;8.30;;;;;;;6.69;81.62;95875.45;108828;1273;22522;-80
2023/02/24 03:35:11;;;;;;;12.60;8.10;;;;;;;6.63;81.90;95879.13;108769;1266;24855;-80
2023/02/24 03:37:42;;;;;;;11.90;6.70;;;;;;;6.58;82.25;95876.08;108738;1255;22539;-79
2023/02/24 03:40:15;;;;;;;10.90;6.20;;;;;;;6.50;82.40;95873.17;108716;1273;23915;-80
2023/02/24 03:42:50;;;;;;;11.40;7.60;;;;;;;6.46;82.96;95877.39;108710;1270;25093;-80
2023/02/24 03:45:22;;;;;;;12.10;7.80;;;;;;;6.42;82.89;95875.05;108779;1273;22532;-80
2023/02/24 03:47:54;;;;;;;7.70;4.70;;;;;;;6.39;83.32;95870.37;108753;1269;26624;-79
2023/02/24 03:50:30;;;;;;;9.60;6.30;;;;;;;6.35;83.56;95872.09;108764;1270;22573;-80
2023/02/24 03:53:14;;;;;;;8.80;5.80;;;;;;;6.30;83.73;95867.19;108760;1272;24154;-80
2023/02/24 03:55:57;;;;;;;7.20;3.80;;;;;;;6.27;83.65;95857.62;108716;1273;22520;-80
2023/02/24 03:58:38;;;;;;;8.00;4.90;;;;;;;6.24;83.78;95862.58;108696;1268;22528;-80
2023/02/24 04:01:14;;;;;;;10.30;6.30;;;;;;;6.21;84.08;95861.97;108732;1270;22603;-81
2023/02/24 04:04:03;;;;;;;8.50;5.20;;;;;;;6.16;84.21;95860.86;108744;1269;22531;-80
2023/02/24 04:06:43;;;;;;;8.30;5.70;;;;;;;6.13;84.23;95846.55;108736;1273;22585;-80
2023/02/24 04:09:16;;;;;;;;;;;;;;;6.10;84.46;95854.10;108755;1273;24223;-80
2023/02/24 04:11:56;;;;;;;7.40;5.10;;;;;;;6.06;84.53;95841.07;108771;1273;24310;-80
2023/02/24 04:14:34;;;;;;;7.00;4.70;;;;;;;6.06;84.71;95829.65;108705;1273;22529;-80
2023/02/24 04:17:12;;;;;;;5.70;3.70;;;;;;;6.06;84.87;95834.11;108733;1272;22530;-80
2023/02/24 04:19:46;;;;;;;5.30;3.60;;;;;;;6.04;84.97;95823.79;108719;1274;22535;-80
2023/02/24 04:22:23;;;;;;;6.00;4.00;;;;;;;6.02;85.07;95825.38;108690;1274;22644;-80
2023/02/24 04:24:59;;;;;;;6.20;4.30;;;;;;;5.98;85.17;95816.56;108728;1268;22516;-80
2023/02/24 04:27:30;;;;;;;6.60;4.20;;;;;;;5.98;85.21;95815.04;108763;1273;26898;-80
2023/02/24 04:30:05;;;;;;;6.90;5.00;;;;;;;5.97;85.07;95810.63;108766;1266;22553;-80
2023/02/24 04:32:36;;;;;;;5.90;3.70;;;;;;;5.95;84.89;95805.58;108783;1274;24223;-80
2023/02/24 04:35:12;;;;;;;7.10;4.40;;;;;;;5.93;85.10;95808.44;108744;1272;22543;-80
2023/02/24 04:37:44;;;;;;;7.70;4.90;;;;;;;5.91;85.25;95805.32;108785;1274;25436;-80
2023/02/24 04:40:20;;;;;;;6.10;3.50;;;;;;;5.89;85.27;95800.51;108757;1266;23770;-80
2023/02/24 04:42:54;;;;;;;5.90;4.30;;;;;;;5.90;85.17;95794.89;108721;1268;25424;-80
2023/02/24 04:45:27;;;;;;;5.90;4.00;;;;;;;5.91;85.28;95790.59;108755;1269;24136;-80
2023/02/24 04:48:01;;;;;;;6.60;4.20;;;;;;;5.89;85.22;95795.24;108721;1271;22657;-80
2023/02/24 04:50:37;;;;;;;6.20;3.70;;;;;;;5.86;85.36;95788.67;108766;1274;22504;-80
2023/02/24 04:53:10;;;;;;;5.10;3.70;;;;;;;5.87;85.30;95778.79;108743;1266;29866;-80
2023/02/24 04:55:46;;;;;;;7.10;4.90;;;;;;;5.88;85.17;95781.25;108782;1273;23139;-80
2023/02/24 04:58:20;;;;;;;6.30;4.20;;;;;;;5.88;84.98;95777.79;108713;1273;22659;-80
2023/02/24 05:00:54;;;;;;;4.90;3.30;;;;;;;5.87;84.86;95775.69;108749;1273;22561;-80
2023/02/24 05:03:27;;;;;;;5.70;3.60;;;;;;;5.88;84.56;95763.10;108788;1274;23775;-80
2023/02/24 05:05:59;;;;;;;7.50;4.90;;;;;;;5.90;84.60;95763.58;108716;1269;24185;-80
2023/02/24 05:08:32;;;;;;;7.20;4.90;;;;;;;5.89;84.28;95772.79;108714;1273;22520;-80
2023/02/24 05:11:04;;;;;;;4.90;2.90;;;;;;;5.89;84.28;95763.05;108736;1273;24301;-80
2023/02/24 05:13:36;;;;;;;6.50;4.80;;;;;;;5.89;84.31;95760.95;108715;1266;22584;-80
2023/02/24 05:16:08;;;;;;;6.00;4.60;;;;;;;5.88;84.23;95759.79;108716;1268;22872;-80
2023/02/24 05:18:41;;;;;;;5.50;2.90;;;;;;;5.87;84.16;95757.01;108715;1274;25510;-80
2023/02/24 05:24:05;;;;;;;4.70;2.80;;;;;;;5.94;83.94;95743.03;108774;1272;22525;-81
2023/02/24 05:26:40;;;;;;;5.90;3.30;;;;;;;5.98;83.52;95746.64;108777;1274;23882;-80
2023/02/24 05:29:12;;;;;;;5.10;3.00;;;;;;;5.99;83.47;95746.00;108763;1273;22526;-80
2023/02/24 05:31:44;;;;;;;4.70;3.30;;;;;;;5.99;83.25;95735.63;108693;1258;24031;-80
2023/02/24 05:34:16;;;;;;;6.30;4.10;;;;;;;6.02;83.12;95737.56;108756;1274;22532;-80
2023/02/24 05:36:48;;;;;;;4.60;2.80;;;;;;;6.03;82.83;95734.45;108754;1273;23340;-81
2023/02/24 05:39:19;;;;;;;6.00;3.20;;;;;;;6.03;82.62;95731.35;108768;1274;22596;-81
2023/02/24 05:41:53;;;;;;;4.80;2.80;;;;;;;6.05;82.46;95739.91;108724;1266;22663;-81
2023/02/24 05:44:26;;;;;;;5.10;3.20;;;;;;;6.07;82.30;95726.40;108734;1271;26502;-80
2023/02/24 05:46:58;;;;;;;5.40;3.40;;;;;;;6.09;82.25;95736.86;108755;1273;22515;-80
2023/02/24 05:49:32;;;;;;;4.60;3.90;;;;;;;6.07;82.21;95735.82;108764;1273;22542;-80
2023/02/24 05:52:07;;;;;;;6.50;4.50;;;;;;;6.08;82.33;95733.82;108666;1273;28213;-80
2023/02/24 05:54:41;;;;;;;5.10;3.00;;;;;;;6.07;82.41;95730.52;108760;1266;22568;-80
2023/02/24 05:57:15;;;;;;;6.00;3.80;;;;;;;6.10;82.35;95734.11;108747;1274;25233;-80
2023/02/24 05:59:49;;;;;;;5.80;4.10;;;;;;;6.12;82.31;95728.94;108742;1266;22581;-80
2023/02/24 06:02:26;;;;;;;5.10;3.10;;;;;;;6.14;82.33;95730.03;108747;1273;25852;-80
2023/02/24 06:04:59;;;;;;;6.60;4.00;;;;;;;6.15;82.47;95736.45;108759;1274;23788;-80
2023/02/24 06:07:33;;;;;;;6.60;4.00;;;;;;;6.13;82.40;95731.46;108720;1274;24029;-80
2023/02/24 06:10:09;;;;;;;5.50;3.90;;;;;;;6.16;82.38;95730.08;108750;1273;23879;-80
2023/02/24 06:12:40;;;;;;;7.80;5.40;;;;;;;6.17;82.35;95726.76;108765;1269;24231;-80
2023/02/24 06:15:12;;;;;;;7.70;5.00;;;;;;;6.14;82.51;95729.35;108725;1274;24190;-80
2023/02/24 06:17:43;;;;;;;8.20;4.80;;;;;;;6.10;82.63;95726.38;108714;1274;22524;-80
2023/02/24 06:20:15;;;;;;;9.00;6.50;;;;;;;6.07;82.68;95722.03;108742;1269;22715;-80
2023/02/24 06:22:47;;;;;;;11.30;6.30;;;;;;;6.02;82.71;95721.67;108762;1274;22520;-80
2023/02/24 06:25:19;;;;;;;8.60;6.30;;;;;;;5.95;82.88;95719.66;108713;1273;23860;-80
2023/02/24 06:27:54;;;;;;;12.20;6.20;;;;;;;5.88;82.99;95716.98;108753;1274;22592;-80
2023/02/24 06:30:26;;;;;;;11.50;7.70;;;;;;;5.81;83.28;95720.06;108727;1274;23053;-80
2023/02/24 06:32:56;;;;;;;10.90;7.40;;;;;;;5.75;83.59;95720.02;108721;1274;25384;-80
2023/02/24 06:35:28;;;;;;;11.40;7.40;;;;;;;5.70;83.47;95720.98;108736;1269;22528;-80
2023/02/24 06:37:59;;;;;;;11.70;7.30;;;;;;;5.67;83.87;95721.00;108749;1274;25573;-80
2023/02/24 06:40:30;;;;;;;11.70;7.60;;;;;;;5.63;84.09;95716.96;108715;1267;25826;-80
2023/02/24 06:43:01;;;;;;;11.50;7.70;;;;;;;5.59;84.50;95713.92;108731;1274;22545;-80
2023/02/24 06:45:32;;;;;;;13.00;8.60;;;;;;;5.59;84.45;95713.55;108801;1274;22527;-80
2023/02/24 06:48:03;;;;;;;12.80;8.90;;;;;;;5.60;84.50;95708.92;108747;1266;25549;-80
2023/02/24 06:50:35;;;;;;;11.60;7.90;;;;;;;5.59;84.68;95710.35;108755;1274;22577;-80
2023/02/24 06:53:15;;;;;;;12.80;8.30;;;;;;;5.58;84.77;95705.09;108687;1274;22912;-80
2023/02/24 06:55:47;;;;;;;11.90;8.60;;;;;;;5.59;84.84;95701.46;108753;1262;23875;-80
2023/02/24 06:58:22;;;;;;;11.80;8.40;;;;;;;5.61;84.86;95703.91;108775;1274;22553;-80
2023/02/24 07:00:56;;;;;;;13.10;8.10;;;;;;;5.63;84.76;95699.88;108729;1270;22510;-80
2023/02/24 07:03:38;;;;;;;13.10;9.40;;;;;;;5.66;84.80;95695.56;108768;1268;23379;-80
2023/02/24 07:06:24;;;;;;;13.40;8.90;;;;;;;5.70;85.00;95697.64;108747;1274;22687;-80
2023/02/24 07:08:57;;;;;;;12.00;7.80;;;;;;;5.77;85.09;95689.45;108766;1274;22650;-80
2023/02/24 07:11:30;;;;;;;14.40;8.70;;;;;;;5.86;84.90;95685.20;108736;1273;22605;-81
2023/02/24 07:14:04;;;;;;;12.60;8.90;;;;;;;5.94;84.69;95685.99;108799;1266;22533;-80
2023/02/24 07:16:36;;;;;;;13.20;9.30;;;;;;;6.02;84.62;95679.67;108741;1272;22578;-80
2023/02/24 07:19:12;;;;;;;13.50;7.80;;;;;;;6.09;84.32;95671.03;108753;1274;23923;-81
2023/02/24 07:21:48;;;;;;;13.20;9.00;;;;;;;6.14;84.12;95671.24;108783;1272;24219;-80
2023/02/24 07:24:29;;;;;;;11.70;7.60;;;;;;;6.20;84.14;95672.27;108776;1274;24223;-80
2023/02/24 07:27:02;;;;;;;13.30;8.60;;;;;;;6.22;83.88;95663.31;108688;1274;22616;-80
2023/02/24 07:29:35;;;;;;;14.40;10.00;;;;;;;6.24;83.67;95671.30;108769;1274;23902;-81
2023/02/24 07:32:09;;;;;;;16.40;9.90;;;;;;;6.24;83.63;95670.20;108718;1274;25978;-81
2023/02/24 07:34:40;;;;;;;15.00;9.80;;;;;;;6.24;83.70;95671.98;108735;1274;24200;-80
2023/02/24 07:37:12;;;;;;;14.60;10.10;;;;;;;6.21;83.74;95662.33;108774;1274;22681;-80
2023/02/24 07:39:43;;;;;;;14.80;10.70;;;;;;;6.19;83.88;95666.70;108739;1271;22531;-80
2023/02/24 07:42:13;;;;;;;15.70;10.00;;;;;;;6.19;83.95;95665.68;108714;1273;29190;-81
2023/02/24 07:44:45;;;;;;;14.90;10.50;;;;;;;6.21;83.91;95659.39;108761;1274;22532;-81
2023/02/24 07:47:16;;;;;;;11.70;9.10;;;;;;;6.23;84.00;95655.73;108725;1274;25547;-81
2023/02/24 07:49:49;;;;;;;17.60;10.80;;;;;;;6.25;84.12;95650.70;108757;1274;22703;-81
2023/02/24 07:52:20;;;;;;;14.00;9.80;;;;;;;6.25;84.10;95651.66;108774;1274;26108;-81
2023/02/24 07:54:51;;;;;;;15.50;9.40;;;;;;;6.25;83.85;95650.92;108758;1274;22528;-81
2023/02/24 07:57:23;;;;;;;13.00;8.30;;;;;;;6.25;83.81;95640.77;108761;1274;22518;-80
2023/02/24 07:59:55;;;;;;;15.60;9.10;;;;;;;6.24;83.77;95641.19;108710;1272;22529;-80
2023/02/24 08:02:26;;;;;;;16.30;11.20;;;;;;;6.25;83.97;95635.45;108710;1271;22584;-80
2023/02/24 08:05:01;;;;;;;13.00;8.10;;;;;;;6.24;84.06;95626.51;108735;1274;25255;-81
2023/02/24 08:07:33;;;;;;;15.20;10.20;;;;;;;6.24;84.24;95634.50;108748;1274;22521;-80
2023/02/24 08:10:23;;;;;;;15.70;10.10;;;;;;;6.27;84.21;95623.16;108740;1274;25132;-80
2023/02/24 08:13:01;;;;;;;15.30;8.10;;;;;;;6.30;84.02;95621.70;108744;1274;23878;-80
2023/02/24 08:15:33;;;;;;;16.40;9.00;;;;;;;6.34;83.90;95620.79;108722;1273;22509;-80
2023/02/24 08:18:04;;;;;;;16.30;11.00;;;;;;;6.44;83.70;95627.52;108701;1274;22568;-81
2023/02/24 08:20:51;;;;;;;16.40;12.20;;;;;;;6.57;83.55;95619.23;108721;1272;22559;-80
2023/02/24 08:23:23;;;;;;;17.40;10.70;;;;;;;6.72;83.30;95610.73;108739;1266;22665;-80
2023/02/24 08:25:54;;;;;;;13.90;9.20;;;;;;;6.81;82.96;95618.29;108776;1257;22524;-79
2023/02/24 08:28:25;;;;;;;17.70;11.00;;;;;;;6.84;82.72;95615.46;108724;1266;22528;-80
2023/02/24 08:30:57;;;;;;;16.10;11.00;;;;;;;6.87;82.27;95615.38;108742;1273;22532;-80
2023/02/24 08:33:29;;;;;;;17.90;12.20;;;;;;;6.97;82.20;95618.81;108712;1274;23458;-81
2023/02/24 08:36:00;;;;;;;16.20;10.70;;;;;;;7.07;81.74;95618.77;108728;1266;22600;-80
2023/02/24 08:38:40;;;;;;;16.20;11.30;;;;;;;7.05;81.46;95615.00;108706;1273;22517;-80
2023/02/24 08:41:28;;;;;;;17.10;10.90;;;;;;;6.98;81.54;95615.69;108690;1273;23007;-80
2023/02/24 08:44:01;;;;;;;12.90;8.90;;;;;;;6.99;81.81;95609.20;108648;1273;22545;-80
2023/02/24 08:46:36;;;;;;;15.70;9.10;;;;;;;7.06;81.79;95604.18;108605;1272;22542;-80
2023/02/24 08:49:15;;;;;;;17.70;12.60;;;;;;;7.13;81.72;95599.72;108636;1269;22715;-80
2023/02/24 08:51:51;;;;;;;16.60;9.90;;;;;;;7.19;81.90;95596.98;108592;1273;25019;-80
2023/02/24 08:54:25;;;;;;;17.00;11.50;;;;;;;7.25;82.18;95596.38;108636;1265;22656;-80
2023/02/24 08:57:06;;;;;;;15.10;9.60;;;;;;;7.34;82.17;95589.48;108646;1273;25284;-80
2023/02/24 08:59:39;;;;;;;16.00;11.90;;;;;;;7.55;82.17;95595.77;108602;1273;23840;-80
2023/02/24 09:02:22;;;;;;;17.30;9.90;;;;;;;7.63;81.40;95594.17;108591;1269;24222;-80
2023/02/24 09:04:56;;;;;;;16.60;10.80;;;;;;;7.57;80.54;95600.31;108678;1273;25297;-80
2023/02/24 09:07:34;;;;;;;18.50;10.70;;;;;;;7.45;80.78;95598.67;108643;1271;23751;-81
2023/02/24 09:10:10;;;;;;;13.40;8.60;;;;;;;7.36;81.10;95597.46;108651;1272;22524;-80
2023/02/24 09:12:43;;;;;;;13.60;8.00;;;;;;;7.37;81.41;95594.13;108727;1274;22554;-80
2023/02/24 09:15:19;;;;;;;16.50;10.80;;;;;;;7.45;80.91;95593.65;108740;1273;25323;-81
2023/02/24 09:18:00;;;;;;;17.80;11.90;;;;;;;7.44;80.77;95595.92;108720;1256;22943;-80
2023/02/24 09:23:28;;;;;;;15.90;9.70;;;;;;;7.37;81.27;95587.13;108751;1270;24171;-80
2023/02/24 09:26:09;;;;;;;19.00;11.50;;;;;;;7.34;80.87;95586.64;108745;1273;22531;-80
2023/02/24 09:28:53;;;;;;;18.50;11.30;;;;;;;7.39;81.19;95595.22;108714;1272;22531;-80
2023/02/24 09:31:39;;;;;;;15.20;8.80;;;;;;;7.48;81.21;95575.70;108704;1271;26381;-80
2023/02/24 09:34:17;;;;;;;16.70;11.20;;;;;;;7.52;80.78;95580.08;108752;1273;23449;-80
2023/02/24 09:37:01;;;;;;;16.20;10.10;;;;;;;7.58;81.14;95573.08;108780;1266;22530;-80
2023/02/24 09:40:29;;;;;;;16.50;8.80;;;;;;;7.60;80.81;95566.94;108772;1273;22566;-80
2023/02/24 09:42:45;;;;;;;13.20;9.20;;;;;;;7.59;80.56;95566.09;108782;1274;22805;-80
2023/02/24 09:45:31;;;;;;;15.20;10.70;;;;;;;7.57;80.92;95563.45;108757;1274;22550;-80
2023/02/24 09:48:10;;;;;;;15.40;10.90;;;;;;;7.54;80.65;95560.48;108752;1274;22532;-80
2023/02/24 09:50:59;;;;;;;13.50;8.40;;;;;;;7.50;80.78;95555.52;108769;1273;21960;-80
2023/02/24 09:53:37;;;;;;;14.40;9.40;;;;;;;7.51;80.73;95554.58;108766;1274;23858;-80
2023/02/24 09:56:20;;;;;;;11.90;8.30;;;;;;;7.47;80.59;95550.45;108782;1274;22655;-80
2023/02/24 09:58:57;;;;;;;13.50;8.80;;;;;;;7.47;80.64;95549.76;108777;1273;22590;-80
2023/02/24 10:01:44;;;;;;;14.90;10.90;;;;;;;7.51;80.36;95547.44;108666;1273;26261;-80
2023/02/24 10:04:29;;;;;;;13.90;10.20;;;;;;;7.59;80.38;95555.19;108781;1273;23739;-79
2023/02/24 10:07:06;;;;;;;11.10;7.50;;;;;;;7.63;80.05;95548.50;108746;1256;22550;-80
2023/02/24 10:09:43;;;;;;;16.50;11.20;;;;;;;7.63;79.78;95556.41;108790;1274;23746;-80
2023/02/24 10:12:20;;;;;;;14.10;9.70;;;;;;;7.67;79.76;95552.59;108709;1274;24263;-80
2023/02/24 10:15:17;;;;;;;12.00;9.20;;;;;;;7.75;79.22;95547.85;108701;1274;25059;-80
2023/02/24 10:17:54;;;;;;;13.60;9.40;;;;;;;7.86;79.38;95550.05;108751;1274;22591;-80
2023/02/24 10:20:38;;;;;;;14.10;9.60;;;;;;;8.01;79.16;95540.23;108697;1273;46207;-80
2023/02/24 10:23:31;;;;;;;11.80;7.20;;;;;;;8.12;78.63;95538.31;108738;1274;23876;-80
2023/02/24 10:26:09;;;;;;;14.50;9.50;;;;;;;8.19;78.41;95530.82;108778;1274;25420;-79
2023/02/24 10:28:58;;;;;;;13.90;9.60;;;;;;;8.29;78.41;95527.65;108776;1272;22545;-80
2023/02/24 10:31:35;;;;;;;14.20;10.30;;;;;;;8.41;78.05;95525.77;108728;1273;23814;-79
2023/02/24 10:34:10;;;;;;;14.40;10.70;;;;;;;8.46;77.97;95514.94;108744;1274;22523;-79
2023/02/24 10:36:46;;;;;;;14.40;10.10;;;;;;;8.50;77.50;95517.86;108797;1274;22610;-80
2023/02/24 10:39:24;;;;;;;16.60;11.30;;;;;;;8.70;77.86;95504.45;108713;1273;22507;-79
2023/02/24 10:42:14;;;;;;;12.50;8.40;;;;;;;8.82;77.33;95501.66;108739;1267;22587;-80
2023/02/24 10:44:53;;;;;;;13.30;10.40;;;;;;;8.82;76.74;95483.39;108808;1253;22529;-80
2023/02/24 10:47:31;;;;;;;14.90;10.30;;;;;;;8.79;76.36;95486.63;108742;1270;22884;-80
2023/02/24 10:50:05;;;;;;;13.90;9.90;;;;;;;8.78;76.36;95477.20;108717;1273;24212;-80
2023/02/24 10:55:52;;;;;;;13.10;9.50;;;;;;;9.13;76.82;95474.83;108752;1274;22535;-80
2023/02/24 10:58:43;;;;;;;14.70;10.90;;;;;;;9.30;76.04;95473.28;108744;1267;22520;-80
2023/02/24 11:01:39;;;;;;;15.10;10.60;;;;;;;9.33;75.37;95462.58;108703;1274;26904;-80
2023/02/24 11:04:42;;;;;;;14.80;10.20;;;;;;;9.23;74.71;95455.63;108709;1272;22521;-81
2023/02/24 11:07:23;;;;;;;13.30;9.60;;;;;;;9.29;74.43;95450.98;108763;1273;22931;-80
2023/02/24 11:10:17;;;;;;;13.80;9.90;;;;;;;9.35;74.68;95444.30;108670;1270;25413;-80
2023/02/24 11:18:36;;;;;;;13.90;9.90;;;;;;;9.70;72.79;95421.73;108612;1269;22629;-80
2023/02/24 11:21:10;;;;;;;14.20;9.90;;;;;;;9.74;73.29;95405.23;108567;1274;25424;-79
2023/02/24 11:23:45;;;;;;;15.80;11.10;;;;;;;9.83;73.04;95405.63;108594;1274;22513;-79
2023/02/24 11:26:19;;;;;;;17.60;9.20;;;;;;;9.93;73.47;95402.16;108558;1274;22568;-79
2023/02/24 11:29:10;;;;;;;13.70;9.20;;;;;;;10.05;72.79;95400.13;109027;1267;22528;-80
2023/02/24 11:31:55;;;;;;;11.40;8.00;;;;;;;9.86;71.31;95392.98;108678;1274;31113;-80
2023/02/24 11:34:38;;;;;;;11.70;6.00;;;;;;;9.68;71.24;95383.84;108753;1273;22539;-80
2023/02/24 11:37:23;;;;;;;12.30;8.30;;;;;;;9.50;71.52;95388.48;108713;1274;26824;-79
2023/02/24 11:40:00;;;;;;;11.70;8.70;;;;;;;9.38;71.92;95391.41;108756;1274;22557;-80
2023/02/24 11:42:36;;;;;;;12.70;9.00;;;;;;;9.30;72.30;95380.71;108752;1274;26474;-80
2023/02/24 11:45:21;;;;;;;13.40;9.00;;;;;;;9.19;72.59;95375.40;108749;1273;24398;-80
2023/02/24 11:47:59;;;;;;;12.70;8.80;;;;;;;9.06;72.76;95376.34;108714;1274;24208;-80
2023/02/24 11:50:42;;;;;;;14.30;9.20;;;;;;;8.99;73.07;95372.73;108780;1267;22520;-80
2023/02/24 11:53:23;;;;;;;13.10;8.80;;;;;;;8.97;73.51;95371.45;108758;1271;22586;-80
2023/02/24 11:56:01;;;;;;;13.90;10.10;;;;;;;8.93;73.35;95376.77;108701;1273;24254;-79
2023/02/24 11:58:40;;;;;;;14.40;8.80;;;;;;;8.92;74.16;95372.44;108764;1273;22932;-80
2023/02/24 12:01:17;;;;;;;15.90;9.10;;;;;;;8.91;73.87;95369.85;108680;1273;22518;-80
2023/02/24 12:04:01;;;;;;;13.20;8.70;;;;;;;8.89;73.95;95371.80;108740;1273;22537;-80
2023/02/24 12:06:40;;;;;;;12.90;8.30;;;;;;;9.00;73.95;95368.90;108731;1267;22521;-80
2023/02/24 12:09:18;;;;;;;12.20;8.70;;;;;;;9.07;73.46;95356.17;108759;1267;22939;-80
2023/02/24 12:11:56;;;;;;;12.70;9.30;;;;;;;9.12;73.80;95351.98;108751;1273;22534;-79
2023/02/24 12:14:39;;;;;;;13.00;9.40;;;;;;;9.29;74.13;95344.86;108756;1273;22548;-79
2023/02/24 12:17:25;;;;;;;11.90;8.60;;;;;;;9.33;73.54;95344.61;108729;1273;22524;-80
2023/02/24 12:20:05;;;;;;;13.80;9.30;;;;;;;9.25;73.68;95341.53;108750;1269;22599;-80
2023/02/24 12:22:43;;;;;;;;;;;;;;;9.16;73.32;95344.02;108792;1273;22497;-80